Monte Alto, Texas
Current Conditions -  °F | °C
As of 10:35 PM on Sunday 21 Dec 2014 (Local Time) from KT65 Reporting Station
Haze Haze  
Wind Chill: 61°   Ceiling: 1200
Heat Index: 61°   Visibility: 5mi
Dew Point: 58°   Wind: 0mph
Humidity: 89%   Direction: NA
Pressure: 29.91"   Gusts: NA
Location:  26.3131°N, 97.9381°W
Report Text: KT65 220435Z AUTO 00000KT 5SM BR SCT008 BKN012 OVC033 16/14 A2991 RMK AO2 T01610143
Loading
Personal Weather Stations






























Interactive Weather Map New forecast layout! Learn more

10-Day Weather Forecast

Advertisements
Track Severe Weather on mobile